Right now: Transfers 2022 > 2023

Adam De Vos is a cyclist from Canada (born October 21st 1993), who currently rides for Human Powered Health (UCI ProTeam).

Race program

Information

2022 2021 2020 2019 2018 2017 2016 2015 2014 2013

Human Powered Health (ProTeam) UCI: Race days: 24 UCI: Distance: 3.799km
Date Pos GC Race UCI
26.06 52 Canada RR | CN 2022-06-26Show more
17.04 Tour of Türkiye | 2.Pro 2022-04-17 Show more
17.04 139 Tour of Türkiye | Overall 2022-04-17
01.04 91 Route Adélie de Vitré | 1.1 2022-04-01Show more
27.03 DNF La Roue Tourangelle | 1.1 2022-03-27Show more
01.03 103 Le Samyn | 1.1 2022-03-01Show more
27.02 DNF Kuurne-Brussel-Kuurne | 1.Pro 2022-02-27Show more
13.02 Tour of Antalya | 2.1 2022-02-13 Show more
13.02 79 Tour of Antalya | Overall 2022-02-13
15.08 Volta a Portugal | 2.1 2022-08-15 Show more
15.08 DNF Volta a Portugal | Overall 2022-08-15
13.02 24 Tour of Antalya | Points 2022-02-13
17.08 PostNord Danmark Rundt 2.Pro 2022-08-17 Show more
17.08 142 131 PostNord Danmark Rundt | 2nd stage 2022-08-17
16.08 127 127 PostNord Danmark Rundt | 1st stage 2022-08-16
11.08 DNS Volta a Portugal | 6th stage 2022-08-11
10.08 78 108 Volta a Portugal | 5th stage 2022-08-10
08.08 112 110 Volta a Portugal | 4th stage 2022-08-08
07.08 94 110 Volta a Portugal | 3rd stage 2022-08-07
06.08 110 112 Volta a Portugal | 2nd stage 2022-08-06
05.08 120 119 Volta a Portugal | 1st stage 2022-08-05
04.08 78 78 Volta a Portugal | Prologue 2022-08-04
16.04 148 139 Tour of Türkiye | 7th stage 2022-04-16
15.04 129 137 Tour of Türkiye | 6th stage 2022-04-15
14.04 94 136 Tour of Türkiye | 5th stage 2022-04-14
13.04 135 136 Tour of Türkiye | 4th stage 2022-04-13
12.04 103 130 Tour of Türkiye | 3rd stage 2022-04-12
11.04 110 131 Tour of Türkiye | 2nd stage 2022-04-11
10.04 131 131 Tour of Türkiye | 1st stage 2022-04-10
13.02 127 79 Tour of Antalya | 4th stage 2022-02-13
12.02 90 79 Tour of Antalya | 3rd stage 2022-02-12
11.02 95 89 Tour of Antalya | 2nd stage 2022-02-11
10.02 5 6 Tour of Antalya | 1st stage 2022-02-10